地図

経路データ

SID SEASON NUMBER BASIN SUBBASIN NAME ISO_TIME NATURE LAT LON WMO_WIND WMO_PRES WMO_AGENCY TRACK_TYPE DIST2LAND LANDFALL IFLAG USA_AGENCY USA_ATCF_ID USA_LAT USA_LON USA_RECORD USA_STATUS USA_WIND USA_PRES USA_SSHS USA_R34_NE USA_R34_SE USA_R34_SW USA_R34_NW USA_R50_NE USA_R50_SE USA_R50_SW USA_R50_NW USA_R64_NE USA_R64_SE USA_R64_SW USA_R64_NW USA_POCI USA_ROCI USA_RMW USA_EYE TOKYO_LAT TOKYO_LON TOKYO_GRADE TOKYO_WIND TOKYO_PRES TOKYO_R50_DIR TOKYO_R50_LONG TOKYO_R50_SHORT TOKYO_R30_DIR TOKYO_R30_LONG TOKYO_R30_SHORT TOKYO_LAND CMA_LAT CMA_LON CMA_CAT CMA_WIND CMA_PRES HKO_LAT HKO_LON HKO_CAT HKO_WIND HKO_PRES NEWDELHI_LAT NEWDELHI_LON NEWDELHI_GRADE NEWDELHI_WIND NEWDELHI_PRES NEWDELHI_CI NEWDELHI_DP NEWDELHI_POCI REUNION_LAT REUNION_LON REUNION_TYPE REUNION_WIND REUNION_PRES REUNION_TNUM REUNION_CI REUNION_RMW REUNION_R34_NE REUNION_R34_SE REUNION_R34_SW REUNION_R34_NW REUNION_R50_NE REUNION_R50_SE REUNION_R50_SW REUNION_R50_NW REUNION_R64_NE REUNION_R64_SE REUNION_R64_SW REUNION_R64_NW BOM_LAT BOM_LON BOM_TYPE BOM_WIND BOM_PRES BOM_TNUM BOM_CI BOM_RMW BOM_R34_NE BOM_R34_SE BOM_R34_SW BOM_R34_NW BOM_R50_NE BOM_R50_SE BOM_R50_SW BOM_R50_NW BOM_R64_NE BOM_R64_SE BOM_R64_SW BOM_R64_NW BOM_ROCI BOM_POCI BOM_EYE BOM_POS_METHOD BOM_PRES_METHOD NADI_LAT NADI_LON NADI_CAT NADI_WIND NADI_PRES WELLINGTON_LAT WELLINGTON_LON WELLINGTON_WIND WELLINGTON_PRES DS824_LAT DS824_LON DS824_STAGE DS824_WIND DS824_PRES TD9636_LAT TD9636_LON TD9636_STAGE TD9636_WIND TD9636_PRES TD9635_LAT TD9635_LON TD9635_WIND TD9635_PRES TD9635_ROCI NEUMANN_LAT NEUMANN_LON NEUMANN_CLASS NEUMANN_WIND NEUMANN_PRES MLC_LAT MLC_LON MLC_CLASS MLC_WIND MLC_PRES USA_GUST BOM_GUST BOM_GUST_PER REUNION_GUST REUNION_GUST_PER USA_SEAHGT USA_SEARAD_NE USA_SEARAD_SE USA_SEARAD_SW USA_SEARAD_NW STORM_SPEED STORM_DIR
1861355S06087 1862 37 SI MM NOT_NAMED 1861-12-20 18:00:00 NR -5.50000 86.7000 main 1359 1359 __________O___ -1 -5.50000 86.7000 7 13 219
1861355S06087 1862 37 SI MM NOT_NAMED 1861-12-20 21:00:00 NR -5.99403 86.2944 main 1429 1429 __________P___ -1 -5.99403 86.2944 7 13 219
1861355S06087 1862 37 SI MM NOT_NAMED 1861-12-21 00:00:00 NR -6.47035 85.9008 main 1500 1500 __________P___ -1 -6.47036 85.9008 7 12 220
1861355S06087 1862 37 SI MM NOT_NAMED 1861-12-21 03:00:00 NR -6.91148 85.5317 main 1534 1534 __________P___ -1 -6.91148 85.5317 7 11 220
1861355S06087 1862 37 SI MM NOT_NAMED 1861-12-21 06:00:00 NR -7.30000 85.2000 main 1564 1564 __________O___ -1 -7.30000 85.2000 7 9 221
1861355S06087 1862 37 SI MM NOT_NAMED 1861-12-21 09:00:00 NR -7.62515 84.9154 main 1586 1586 __________P___ -1 -7.62515 84.9154 7 8 221
1861355S06087 1862 37 SI MM NOT_NAMED 1861-12-21 12:00:00 NR -7.90231 84.6747 main 1611 1608 __________P___ -1 -7.90231 84.6747 7 7 220
1861355S06087 1862 37 SI MM NOT_NAMED 1861-12-21 15:00:00 NR -8.15332 84.4717 main 1638 1635 __________P___ -1 -8.15332 84.4717 7 6 217
1861355S06087 1862 37 SI MM NOT_NAMED 1861-12-21 18:00:00 NR -8.40000 84.3000 main 1654 1654 __________O___ -1 -8.40000 84.3000 7 6 212
1861355S06087 1862 37 SI MM NOT_NAMED 1861-12-21 21:00:00 NR -8.69118 84.1381 main 1681 1681 __________P___ -1 -8.69118 84.1381 7 7 207
1861355S06087 1862 37 SI MM NOT_NAMED 1861-12-22 00:00:00 NR -8.97992 84.0049 main 1711 1711 __________P___ -1 -8.97992 84.0049 7 6 203
1861355S06087 1862 37 SI MM NOT_NAMED 1861-12-22 03:00:00 NR -9.25370 83.8943 main 1742 1742 __________P___ -1 -9.25370 83.8943 7 6 201
1861355S06087 1862 37 SI MM NOT_NAMED 1861-12-22 06:00:00 NR -9.50000 83.8000 main 1761 1761 __________O___ -1 -9.50000 83.8000 7 5 203
1861355S06087 1862 37 SI MM NOT_NAMED 1861-12-22 09:00:00 NR -9.69967 83.7024 main 1781 1781 __________P___ -1 -9.69967 83.7024 7 4 206
1861355S06087 1862 37 SI MM NOT_NAMED 1861-12-22 12:00:00 NR -9.87247 83.6199 main 1801 1801 __________P___ -1 -9.87247 83.6199 7 4 204
1861355S06087 1862 37 SI MM NOT_NAMED 1861-12-22 15:00:00 NR -10.0340 83.5525 main 1812 1810 __________P___ -1 -10.0340 83.5525 7 4 200
1861355S06087 1862 37 SI MM NOT_NAMED 1861-12-22 18:00:00 NR -10.2000 83.5000 main 1832 1832 __________O___ -1 -10.2000 83.5000 7 4 194
1861355S06087 1862 37 SI MM NOT_NAMED 1861-12-22 21:00:00 NR -10.3969 83.4606 main 1854 1854 __________P___ -1 -10.3969 83.4606 7 4 189
1861355S06087 1862 37 SI MM NOT_NAMED 1861-12-23 00:00:00 NR -10.6000 83.4349 main 1874 1874 __________P___ -1 -10.6000 83.4349 7 4 184
1861355S06087 1862 37 SI MM NOT_NAMED 1861-12-23 03:00:00 NR -10.8031 83.4168 main 1896 1896 __________P___ -1 -10.8031 83.4168 7 4 185
1861355S06087 1862 37 SI MM NOT_NAMED 1861-12-23 06:00:00 NR -11.0000 83.4000 main 1918 1918 __________O___ -1 -11.0000 83.4000 7 4 186
1861355S06087 1862 37 SI MM NOT_NAMED 1861-12-23 09:00:00 NR -11.1741 83.3709 main 1940 1940 __________P___ -1 -11.1741 83.3709 7 3 189
1861355S06087 1862 37 SI MM NOT_NAMED 1861-12-23 12:00:00 NR -11.3425 83.3425 main 1950 1950 __________P___ -1 -11.3425 83.3425 7 3 189
1861355S06087 1862 37 SI MM NOT_NAMED 1861-12-23 15:00:00 NR -11.5147 83.3178 main 1972 1972 __________P___ -1 -11.5147 83.3178 7 4 187
1861355S06087 1862 37 SI MM NOT_NAMED 1861-12-23 18:00:00 NR -11.7000 83.3000 main 1994 1994 __________O___ -1 -11.7000 83.3000 7 4 187
1861355S06087 1862 37 SI MM NOT_NAMED 1861-12-23 21:00:00 NR -11.8700 83.2848 main 2016 2016 __________P___ -1 -11.8700 83.2848 7 4 183
1861355S06087 1862 37 SI MM NOT_NAMED 1861-12-24 00:00:00 NR -12.0600 83.2776 main 2038 2038 __________P___ -1 -12.0600 83.2776 7 4 0
1861355S06087 1862 37 SI MM NOT_NAMED 1861-12-24 03:00:00 NR -12.2950 83.2817 main 2060 2060 __________P___ -1 -12.2950 83.2817 7 5 0
1861355S06087 1862 37 SI MM NOT_NAMED 1861-12-24 06:00:00 NR -12.6000 83.3000 main 2094 2094 __________O___ -1 -12.6000 83.3000 7 7 176
1861355S06087 1862 37 SI MM NOT_NAMED 1861-12-24 09:00:00 NR -13.0072 83.3355 main 2134 2134 __________P___ -1 -13.0072 83.3355 7 9 175
1861355S06087 1862 37 SI MM NOT_NAMED 1861-12-24 12:00:00 NR -13.4826 83.3849 main 2158 2158 __________P___ -1 -13.4826 83.3849 7 10 174
1861355S06087 1862 37 SI MM NOT_NAMED 1861-12-24 15:00:00 NR -13.9916 83.4418 main 2192 2190 __________P___ -1 -13.9916 83.4418 7 10 174
1861355S06087 1862 37 SI MM NOT_NAMED 1861-12-24 18:00:00 NR -14.5000 83.5000 main 2218 2218 __________O___ -1 -14.5000 83.5000 7 10 173
1861355S06087 1862 37 SI MM NOT_NAMED 1861-12-24 21:00:00 NR -14.9806 83.5544 main 2245 2245 __________P___ -1 -14.9806 83.5544 7 9 174
1861355S06087 1862 37 SI MM NOT_NAMED 1861-12-25 00:00:00 NR -15.4349 83.6049 main 2274 2274 __________P___ -1 -15.4349 83.6049 7 9 174
1861355S06087 1862 37 SI MM NOT_NAMED 1861-12-25 03:00:00 NR -15.8718 83.6530 main 2304 2304 __________P___ -1 -15.8718 83.6530 7 9 174
1861355S06087 1862 37 SI MM NOT_NAMED 1861-12-25 06:00:00 NR -16.3000 83.7000 main 2334 __________O___ -1 -16.3000 83.7000 7 9 175

IBTrACS Databaseについて

本データベースは、米国NOAAが公開する1842年以降の世界の熱帯低気圧のベストトラックデータアーカイブInternational Best Track Archive for Climate Stewardship (IBTrACS)を、ウェブで閲覧しやすい形式に変換したものです。

最終更新日:2021-10-25